createdAt,value
2023-05-06T00:02:24.129Z,2.20
2023-05-06T00:04:53.949Z,2.42
2023-05-06T00:07:26.380Z,2.38
2023-05-06T00:10:02.321Z,2.40
2023-05-06T00:12:32.624Z,2.35
2023-05-06T00:15:09.009Z,2.20
2023-05-06T00:17:44.927Z,2.35
2023-05-06T00:20:18.119Z,2.20
2023-05-06T00:22:56.191Z,2.38
2023-05-06T00:25:29.003Z,2.35
2023-05-06T00:28:04.738Z,2.55
2023-05-06T00:30:48.486Z,2.30
2023-05-06T00:33:23.949Z,2.20
2023-05-06T00:35:56.587Z,2.30
2023-05-06T00:38:31.929Z,2.40
2023-05-06T00:41:05.903Z,2.42
2023-05-06T00:43:39.094Z,2.20
2023-05-06T00:46:21.783Z,2.30
2023-05-06T00:48:55.818Z,2.30
2023-05-06T00:51:33.328Z,2.40
2023-05-06T00:54:11.092Z,2.30
2023-05-06T00:56:43.590Z,2.40
2023-05-06T00:59:22.617Z,2.30
2023-05-06T01:01:55.839Z,2.20
2023-05-06T01:04:33.680Z,2.33
2023-05-06T01:07:35.892Z,2.50
2023-05-06T01:10:20.589Z,2.20
2023-05-06T01:13:10.225Z,2.20
2023-05-06T01:15:55.386Z,2.33
2023-05-06T01:18:28.426Z,2.35
2023-05-06T01:20:57.465Z,2.30
2023-05-06T01:23:30.057Z,2.40
2023-05-06T01:26:05.097Z,2.33
2023-05-06T01:28:38.777Z,2.70
2023-05-06T01:31:24.591Z,2.15
2023-05-06T01:37:21.006Z,2.20
2023-05-06T01:39:59.919Z,2.20
2023-05-06T01:42:29.409Z,2.45
2023-05-06T01:45:05.364Z,2.55
2023-05-06T01:47:42.104Z,2.47
2023-05-06T01:50:15.578Z,2.50
2023-05-06T01:52:57.976Z,2.50
2023-05-06T01:55:33.305Z,2.50
2023-05-06T01:58:06.278Z,2.30
2023-05-06T02:00:39.438Z,2.20
2023-05-06T02:03:12.053Z,2.33
2023-05-06T02:05:50.587Z,2.28
2023-05-06T02:08:26.343Z,2.20
2023-05-06T02:11:02.271Z,2.20
2023-05-06T02:13:41.913Z,2.17
2023-05-06T02:16:21.946Z,2.20
2023-05-06T02:18:55.901Z,2.30
2023-05-06T02:21:28.355Z,2.35
2023-05-06T02:23:59.813Z,2.28
2023-05-06T02:26:35.673Z,2.35
2023-05-06T02:29:12.151Z,2.13
2023-05-06T02:31:47.467Z,2.30
2023-05-06T02:34:19.625Z,2.38
2023-05-06T02:36:57.856Z,2.20
2023-05-06T02:39:33.176Z,2.30
2023-05-06T02:42:08.943Z,2.30
2023-05-06T02:44:39.164Z,3.00
2023-05-06T02:47:15.126Z,2.10
2023-05-06T02:49:55.665Z,2.25
2023-05-06T02:52:28.652Z,2.25
2023-05-06T02:55:01.496Z,2.33
2023-05-06T02:57:37.131Z,2.22
2023-05-06T03:00:16.271Z,2.65
2023-05-06T03:02:46.388Z,2.20
2023-05-06T03:05:19.034Z,2.08
2023-05-06T03:07:59.500Z,2.30
2023-05-06T03:10:32.912Z,2.10
2023-05-06T03:15:46.119Z,2.10
2023-05-06T03:18:25.539Z,2.30
2023-05-06T03:20:58.965Z,2.28
2023-05-06T03:23:35.057Z,2.20
2023-05-06T03:26:08.715Z,2.60
2023-05-06T03:28:43.225Z,2.10
2023-05-06T03:31:16.477Z,2.28
2023-05-06T03:33:55.940Z,2.10
2023-05-06T03:36:28.786Z,2.20
2023-05-06T03:39:03.957Z,2.50
2023-05-06T03:41:41.405Z,2.20
2023-05-06T03:44:14.472Z,2.40
2023-05-06T03:46:47.173Z,2.40
2023-05-06T03:49:21.342Z,2.20
2023-05-06T03:51:58.009Z,2.30
2023-05-06T03:54:32.172Z,2.28
2023-05-06T03:57:08.030Z,2.20
2023-05-06T03:59:36.904Z,1.90
2023-05-06T04:02:10.152Z,2.17
2023-05-06T04:04:47.779Z,2.30
2023-05-06T04:07:19.511Z,2.10
2023-05-06T04:09:49.863Z,2.65
2023-05-06T04:12:22.043Z,2.22
2023-05-06T04:14:54.919Z,2.30
2023-05-06T04:17:32.472Z,2.30
2023-05-06T04:20:11.495Z,2.25
2023-05-06T04:22:47.358Z,2.17
2023-05-06T04:25:21.359Z,2.40
2023-05-06T04:27:57.009Z,2.30
2023-05-06T04:30:33.365Z,2.08
2023-05-06T04:33:12.213Z,2.20
2023-05-06T04:36:01.238Z,2.15
2023-05-06T04:38:41.094Z,2.40
2023-05-06T04:41:23.699Z,2.42
2023-05-06T04:44:01.896Z,2.10
2023-05-06T04:46:35.104Z,2.30
2023-05-06T04:49:14.115Z,2.17
2023-05-06T04:51:50.496Z,2.42
2023-05-06T04:54:22.927Z,2.35
2023-05-06T04:56:51.337Z,2.53
2023-05-06T04:59:24.372Z,2.40
2023-05-06T05:01:58.194Z,2.40
2023-05-06T05:04:28.860Z,2.22
2023-05-06T05:07:00.175Z,2.30
2023-05-06T05:09:32.844Z,2.28
2023-05-06T05:12:12.329Z,2.20
2023-05-06T05:14:50.537Z,2.20
2023-05-06T05:17:23.690Z,2.28
2023-05-06T05:20:02.091Z,2.20
2023-05-06T05:22:41.193Z,2.00
2023-05-06T05:25:17.409Z,2.20
2023-05-06T05:27:48.786Z,2.15
2023-05-06T05:32:58.791Z,2.00
2023-05-06T05:35:45.882Z,2.22
2023-05-06T05:38:27.406Z,2.50
2023-05-06T05:41:16.058Z,2.50
2023-05-06T05:43:55.067Z,2.22
2023-05-06T05:46:29.069Z,2.50
2023-05-06T05:48:59.868Z,2.60
2023-05-06T05:51:33.939Z,2.00
2023-05-06T05:54:22.583Z,2.42
2023-05-06T05:56:55.519Z,2.15
2023-05-06T05:59:36.889Z,2.42
2023-05-06T06:02:16.519Z,2.35
2023-05-06T06:04:52.749Z,2.20
2023-05-06T06:07:35.306Z,2.20
2023-05-06T06:10:14.915Z,2.30
2023-05-06T06:12:54.219Z,2.38
2023-05-06T06:15:38.120Z,1.90
2023-05-06T06:18:17.134Z,2.03
2023-05-06T06:20:59.662Z,2.30
2023-05-06T06:23:43.756Z,2.10
2023-05-06T06:26:22.264Z,2.10
2023-05-06T06:28:55.524Z,2.30
2023-05-06T06:31:33.906Z,2.10
2023-05-06T06:34:15.157Z,2.30
2023-05-06T06:36:46.233Z,2.08
2023-05-06T06:39:31.662Z,2.10
2023-05-06T06:42:04.378Z,2.10
2023-05-06T06:44:49.929Z,2.10
2023-05-06T06:47:36.713Z,2.30
2023-05-06T06:50:13.480Z,2.20
2023-05-06T06:52:51.937Z,2.00
2023-05-06T06:55:36.185Z,2.15
2023-05-06T06:58:11.518Z,2.08
2023-05-06T07:00:52.110Z,2.15
2023-05-06T07:03:34.121Z,1.98
2023-05-06T07:06:34.317Z,2.22
2023-05-06T07:09:18.187Z,2.17
2023-05-06T07:11:51.582Z,2.17
2023-05-06T07:14:31.235Z,2.20
2023-05-06T07:17:15.586Z,2.33
2023-05-06T07:19:58.039Z,2.15
2023-05-06T07:22:31.991Z,2.10
2023-05-06T07:25:07.379Z,2.10
2023-05-06T07:27:48.458Z,2.30
2023-05-06T07:30:31.354Z,1.92
2023-05-06T07:33:07.818Z,2.10
2023-05-06T07:35:37.392Z,2.00
2023-05-06T07:38:13.336Z,2.10
2023-05-06T07:40:43.444Z,1.95
2023-05-06T07:43:21.924Z,2.00
2023-05-06T07:46:02.792Z,1.95
2023-05-06T07:48:46.313Z,1.90
2023-05-06T07:51:28.250Z,2.05
2023-05-06T07:54:12.238Z,2.15
2023-05-06T07:56:48.644Z,2.10
2023-05-06T07:59:26.828Z,2.30
2023-05-06T08:02:08.255Z,2.10
2023-05-06T08:04:51.526Z,2.45
2023-05-06T08:07:32.681Z,2.30
2023-05-06T08:10:10.880Z,1.92
2023-05-06T08:13:00.236Z,2.08
2023-05-06T08:15:40.857Z,2.05
2023-05-06T08:18:23.446Z,2.15
2023-05-06T08:20:59.475Z,2.20
2023-05-06T08:23:38.292Z,2.20
2023-05-06T08:26:08.250Z,2.30
2023-05-06T08:28:47.375Z,2.28
2023-05-06T08:31:21.767Z,2.30
2023-05-06T08:34:03.124Z,2.35
2023-05-06T08:36:41.193Z,2.53
2023-05-06T08:39:19.356Z,2.30
2023-05-06T08:42:02.076Z,2.60
2023-05-06T08:44:40.891Z,2.33
2023-05-06T08:47:19.320Z,2.60
2023-05-06T08:49:50.556Z,2.78
2023-05-06T08:52:22.055Z,2.72
2023-05-06T08:55:01.949Z,2.63
2023-05-06T08:57:40.044Z,2.88
2023-05-06T09:00:20.390Z,2.60
2023-05-06T09:02:50.965Z,2.75
2023-05-06T09:05:35.743Z,2.88
2023-05-06T09:08:14.541Z,2.60
2023-05-06T09:10:47.429Z,2.90
2023-05-06T09:13:19.535Z,2.70
2023-05-06T09:15:54.703Z,3.28
2023-05-06T09:18:26.097Z,2.83
2023-05-06T09:21:11.295Z,2.65
2023-05-06T09:23:46.774Z,2.72
2023-05-06T09:26:22.222Z,2.90
2023-05-06T09:28:52.562Z,3.10
2023-05-06T09:31:23.903Z,2.92
2023-05-06T09:33:58.317Z,2.90
2023-05-06T09:36:34.050Z,2.83
2023-05-06T09:39:08.793Z,2.78
2023-05-06T09:41:39.473Z,2.83
2023-05-06T09:44:14.909Z,3.05
2023-05-06T09:46:50.674Z,2.85
2023-05-06T09:49:22.119Z,3.00
2023-05-06T09:51:57.664Z,3.00
2023-05-06T09:54:30.947Z,3.33
2023-05-06T09:57:04.723Z,2.70
2023-05-06T09:59:38.116Z,2.95
2023-05-06T10:02:14.848Z,3.05
2023-05-06T10:04:52.488Z,2.85
2023-05-06T10:07:28.745Z,3.05
2023-05-06T10:10:03.168Z,2.88
2023-05-06T10:12:38.649Z,2.80
2023-05-06T10:17:52.554Z,3.00
2023-05-06T10:20:30.433Z,2.67
2023-05-06T10:23:16.234Z,2.78
2023-05-06T10:25:54.900Z,2.60
2023-05-06T10:28:30.548Z,2.55
2023-05-06T10:31:07.630Z,2.63
2023-05-06T10:33:49.182Z,2.80
2023-05-06T10:36:28.625Z,2.53
2023-05-06T10:39:03.440Z,2.47
2023-05-06T10:41:41.671Z,2.80
2023-05-06T10:44:31.767Z,2.95
2023-05-06T10:47:06.482Z,2.67
2023-05-06T10:49:43.170Z,2.72
2023-05-06T10:52:20.073Z,2.70
2023-05-06T10:54:56.261Z,2.85
2023-05-06T10:57:39.966Z,2.53
2023-05-06T11:02:57.046Z,2.55
2023-05-06T11:05:33.051Z,2.60
2023-05-06T11:08:15.340Z,2.80
2023-05-06T11:10:50.717Z,2.72
2023-05-06T11:13:31.684Z,2.70
2023-05-06T11:16:03.847Z,2.70
2023-05-06T11:18:33.562Z,2.90
2023-05-06T11:21:11.301Z,2.90
2023-05-06T11:23:47.603Z,2.80
2023-05-06T11:26:27.268Z,2.83
2023-05-06T11:29:04.579Z,3.10
2023-05-06T11:31:49.636Z,2.97
2023-05-06T11:34:38.480Z,2.67
2023-05-06T11:37:13.909Z,2.97
2023-05-06T11:39:50.987Z,2.80
2023-05-06T11:42:35.278Z,2.70
2023-05-06T11:45:09.107Z,3.10
2023-05-06T11:47:46.511Z,2.97
2023-05-06T11:50:22.094Z,2.97
2023-05-06T11:53:02.609Z,3.03
2023-05-06T11:55:41.270Z,2.90
2023-05-06T11:58:20.536Z,3.03
2023-05-06T12:01:02.756Z,2.90
2023-05-06T12:03:38.350Z,3.00
2023-05-06T12:06:16.530Z,2.90
2023-05-06T12:08:55.284Z,2.97
2023-05-06T12:11:33.698Z,2.45
2023-05-06T12:14:10.820Z,3.03
2023-05-06T12:16:52.462Z,2.75
2023-05-06T12:19:28.792Z,2.80
2023-05-06T12:22:22.746Z,3.00
2023-05-06T12:25:01.057Z,3.10
2023-05-06T12:27:41.048Z,3.10
2023-05-06T12:30:11.894Z,3.08
2023-05-06T12:33:02.357Z,2.78
2023-05-06T12:35:38.078Z,3.03
2023-05-06T12:38:22.170Z,3.10
2023-05-06T12:40:57.304Z,2.95
2023-05-06T12:43:35.804Z,3.35
2023-05-06T12:46:12.228Z,2.97
2023-05-06T12:48:56.753Z,2.92
2023-05-06T12:51:35.132Z,3.03
2023-05-06T12:54:36.035Z,2.90
2023-05-06T12:57:11.800Z,2.80
2023-05-06T12:59:48.144Z,3.25
2023-05-06T13:02:26.979Z,2.92
2023-05-06T13:05:05.408Z,3.05
2023-05-06T13:07:42.077Z,3.03
2023-05-06T13:10:13.861Z,3.00
2023-05-06T13:12:55.142Z,3.05
2023-05-06T13:15:35.772Z,2.80
2023-05-06T13:18:14.041Z,3.03
2023-05-06T13:20:48.981Z,3.00
2023-05-06T13:23:20.208Z,3.22
2023-05-06T13:26:06.161Z,3.03
2023-05-06T13:28:37.121Z,2.75
2023-05-06T13:31:16.776Z,3.00
2023-05-06T13:33:58.930Z,3.15
2023-05-06T13:36:29.011Z,2.80
2023-05-06T13:39:04.952Z,3.33
2023-05-06T13:41:48.366Z,2.97
2023-05-06T13:44:24.777Z,2.90
2023-05-06T13:47:05.596Z,2.97
2023-05-06T13:49:43.684Z,3.10
2023-05-06T13:52:25.498Z,2.85
2023-05-06T13:55:06.020Z,2.90
2023-05-06T13:57:42.479Z,3.00
2023-05-06T14:00:22.258Z,3.00
2023-05-06T14:02:58.808Z,2.67
2023-05-06T14:05:27.524Z,2.83
2023-05-06T14:08:00.640Z,2.72
2023-05-06T14:10:33.977Z,3.15
2023-05-06T14:13:13.252Z,2.97
2023-05-06T14:15:51.678Z,2.80
2023-05-06T14:18:19.855Z,3.20
2023-05-06T14:21:03.758Z,3.10
2023-05-06T14:23:40.664Z,2.90
2023-05-06T14:26:16.450Z,2.92
2023-05-06T14:28:49.130Z,2.83
2023-05-06T14:31:29.893Z,2.85
2023-05-06T14:34:06.155Z,2.80
2023-05-06T14:36:47.090Z,3.08
2023-05-06T14:39:28.285Z,3.22
2023-05-06T14:42:07.094Z,3.10
2023-05-06T14:44:38.761Z,3.08
2023-05-06T14:47:12.744Z,2.90
2023-05-06T14:49:51.816Z,3.08
2023-05-06T14:52:34.944Z,3.08
2023-05-06T14:55:16.404Z,2.88
2023-05-06T14:57:51.603Z,2.92
2023-05-06T15:00:25.148Z,2.67
2023-05-06T15:02:59.629Z,3.00
2023-05-06T15:05:43.361Z,2.90
2023-05-06T15:08:29.158Z,2.95
2023-05-06T15:11:04.945Z,2.95
2023-05-06T15:13:33.717Z,2.70
2023-05-06T15:16:11.548Z,3.10
2023-05-06T15:18:45.111Z,2.90
2023-05-06T15:23:55.721Z,3.13
2023-05-06T15:26:33.288Z,3.10
2023-05-06T15:29:12.043Z,3.10
2023-05-06T15:31:45.193Z,3.00
2023-05-06T15:34:26.996Z,3.15
2023-05-06T15:37:10.351Z,2.88
2023-05-06T15:39:47.884Z,2.95
2023-05-06T15:42:28.924Z,3.10
2023-05-06T15:45:12.411Z,3.28
2023-05-06T15:47:48.776Z,2.83
2023-05-06T15:50:32.446Z,2.97
2023-05-06T15:53:08.656Z,3.30
2023-05-06T15:55:45.423Z,3.17
2023-05-06T15:58:22.644Z,2.88
2023-05-06T16:00:55.364Z,3.13
2023-05-06T16:03:32.999Z,3.10
2023-05-06T16:06:08.100Z,2.80
2023-05-06T16:08:38.958Z,2.92
2023-05-06T16:11:11.564Z,3.20
2023-05-06T16:13:49.899Z,3.00
2023-05-06T16:16:28.793Z,3.38
2023-05-06T16:19:10.806Z,3.30
2023-05-06T16:21:39.051Z,3.20
2023-05-06T16:24:17.368Z,3.10
2023-05-06T16:26:55.047Z,3.38
2023-05-06T16:29:33.954Z,3.28
2023-05-06T16:32:12.813Z,3.10
2023-05-06T16:34:51.672Z,3.42
2023-05-06T16:37:29.950Z,3.20
2023-05-06T16:40:02.963Z,3.30
2023-05-06T16:42:39.997Z,3.35
2023-05-06T16:45:23.330Z,3.40
2023-05-06T16:47:53.806Z,3.30
2023-05-06T16:50:34.909Z,3.92
2023-05-06T16:53:08.791Z,3.40
2023-05-06T16:55:48.847Z,3.08
2023-05-06T16:58:29.944Z,3.28
2023-05-06T17:01:09.396Z,3.72
2023-05-06T17:03:44.002Z,3.38
2023-05-06T17:06:19.406Z,3.58
2023-05-06T17:08:55.298Z,3.70
2023-05-06T17:11:38.495Z,3.40
2023-05-06T17:14:22.624Z,3.40
2023-05-06T17:17:02.983Z,3.50
2023-05-06T17:19:49.211Z,3.70
2023-05-06T17:22:20.664Z,3.60
2023-05-06T17:25:02.467Z,3.60
2023-05-06T17:27:36.456Z,3.78
2023-05-06T17:30:15.039Z,3.30
2023-05-06T17:32:50.748Z,3.17
2023-05-06T17:35:23.714Z,3.70
2023-05-06T17:37:56.088Z,3.92
2023-05-06T17:40:31.520Z,3.70
2023-05-06T17:43:01.629Z,3.72
2023-05-06T17:45:39.894Z,3.85
2023-05-06T17:48:14.748Z,4.10
2023-05-06T17:50:51.209Z,3.50
2023-05-06T17:53:32.891Z,3.90
2023-05-06T17:56:09.066Z,3.75
2023-05-06T17:58:50.107Z,3.85
2023-05-06T18:01:31.742Z,3.50
2023-05-06T18:04:07.881Z,3.60
2023-05-06T18:06:42.036Z,3.90
2023-05-06T18:09:17.756Z,3.42
2023-05-06T18:11:55.561Z,3.78
2023-05-06T18:14:26.478Z,3.67
2023-05-06T18:16:57.032Z,3.53
2023-05-06T18:19:29.649Z,3.58
2023-05-06T18:22:02.318Z,3.83
2023-05-06T18:24:37.237Z,3.70
2023-05-06T18:27:13.566Z,3.88
2023-05-06T18:29:54.802Z,3.80
2023-05-06T18:32:30.520Z,3.88
2023-05-06T18:35:12.507Z,3.45
2023-05-06T18:37:53.828Z,4.00
2023-05-06T18:40:36.776Z,3.70
2023-05-06T18:43:18.761Z,3.60
2023-05-06T18:46:05.163Z,3.83
2023-05-06T18:48:41.205Z,4.07
2023-05-06T18:51:17.195Z,3.85
2023-05-06T18:53:53.934Z,3.30
2023-05-06T18:56:37.397Z,4.15
2023-05-06T18:59:08.890Z,3.75
2023-05-06T19:01:47.682Z,3.55
2023-05-06T19:04:23.484Z,3.60
2023-05-06T19:06:59.208Z,3.83
2023-05-06T19:09:37.156Z,3.83
2023-05-06T19:12:16.268Z,3.92
2023-05-06T19:14:53.271Z,3.92
2023-05-06T19:17:28.970Z,3.78
2023-05-06T19:20:02.104Z,3.83
2023-05-06T19:22:43.625Z,3.90
2023-05-06T19:25:22.076Z,3.92
2023-05-06T19:28:00.410Z,3.88
2023-05-06T19:30:40.303Z,3.95
2023-05-06T19:33:13.360Z,3.47
2023-05-06T19:35:52.167Z,3.83
2023-05-06T19:38:30.932Z,4.05
2023-05-06T19:41:13.381Z,3.80
2023-05-06T19:43:49.520Z,3.53
2023-05-06T19:46:28.686Z,3.85
2023-05-06T19:49:10.788Z,3.70
2023-05-06T19:51:49.263Z,3.78
2023-05-06T19:54:29.407Z,3.78
2023-05-06T19:56:59.927Z,3.47
2023-05-06T19:59:33.215Z,3.80
2023-05-06T20:02:13.467Z,3.70
2023-05-06T20:04:43.752Z,4.10
2023-05-06T20:07:21.141Z,3.88
2023-05-06T20:09:56.038Z,3.85
2023-05-06T20:12:39.301Z,3.90
2023-05-06T20:15:13.292Z,3.55
2023-05-06T20:17:55.685Z,3.90
2023-05-06T20:20:34.078Z,3.83
2023-05-06T20:23:09.933Z,4.15
2023-05-06T20:25:48.180Z,4.40
2023-05-06T20:28:28.270Z,3.60
2023-05-06T20:30:59.920Z,4.10
2023-05-06T20:33:35.545Z,3.97
2023-05-06T20:36:13.752Z,4.13
2023-05-06T20:38:53.266Z,4.30
2023-05-06T20:41:35.285Z,4.43
2023-05-06T20:44:15.309Z,4.30
2023-05-06T20:46:54.271Z,4.30
2023-05-06T20:49:30.688Z,4.15
2023-05-06T20:52:21.527Z,4.22
2023-05-06T20:55:00.006Z,4.03
2023-05-06T20:57:33.805Z,4.32
2023-05-06T21:00:11.345Z,4.38
2023-05-06T21:02:44.692Z,4.30
2023-05-06T21:05:17.795Z,4.38
2023-05-06T21:07:59.534Z,4.60
2023-05-06T21:10:35.351Z,4.05
2023-05-06T21:13:11.558Z,4.18
2023-05-06T21:15:47.487Z,4.20
2023-05-06T21:18:23.468Z,4.40
2023-05-06T21:21:03.742Z,4.30
2023-05-06T21:23:42.396Z,4.60
2023-05-06T21:26:18.846Z,4.22
2023-05-06T21:28:57.609Z,4.00
2023-05-06T21:31:34.607Z,3.50
2023-05-06T21:34:15.784Z,4.07
2023-05-06T21:36:51.465Z,4.22
2023-05-06T21:39:25.376Z,4.10
2023-05-06T21:41:58.084Z,4.00
2023-05-06T21:44:36.552Z,3.80
2023-05-06T21:47:08.401Z,3.60
2023-05-06T21:49:49.492Z,3.92
2023-05-06T21:52:22.346Z,3.75
2023-05-06T21:55:03.429Z,3.70
2023-05-06T21:57:41.662Z,3.85
2023-05-06T22:00:20.386Z,3.60
2023-05-06T22:02:56.782Z,3.75
2023-05-06T22:05:35.062Z,3.60
2023-05-06T22:08:17.211Z,3.35
2023-05-06T22:10:56.676Z,3.72
2023-05-06T22:13:29.831Z,3.67
2023-05-06T22:16:11.029Z,3.22
2023-05-06T22:18:48.468Z,3.67
2023-05-06T22:21:16.119Z,3.53
2023-05-06T22:23:49.001Z,3.55
2023-05-06T22:26:26.021Z,3.90
2023-05-06T22:29:02.217Z,3.55
2023-05-06T22:31:37.719Z,3.45
2023-05-06T22:34:17.038Z,3.60
2023-05-06T22:36:57.604Z,3.00
2023-05-06T22:39:36.787Z,3.45
2023-05-06T22:42:09.517Z,3.20
2023-05-06T22:44:45.691Z,3.13
2023-05-06T22:47:24.345Z,3.28
2023-05-06T22:50:06.851Z,3.75
2023-05-06T22:52:45.590Z,3.53
2023-05-06T22:55:15.127Z,3.35
2023-05-06T22:57:53.424Z,3.53
2023-05-06T23:00:29.094Z,3.33
2023-05-06T23:03:06.026Z,3.38
2023-05-06T23:05:45.054Z,3.53
2023-05-06T23:08:26.446Z,3.33
2023-05-06T23:11:02.002Z,3.22
2023-05-06T23:13:38.170Z,3.13
2023-05-06T23:16:14.775Z,3.47
2023-05-06T23:18:50.931Z,3.38
2023-05-06T23:21:23.835Z,3.38
2023-05-06T23:24:02.332Z,3.22
2023-05-06T23:26:35.572Z,3.22
2023-05-06T23:29:09.142Z,3.20
2023-05-06T23:31:44.130Z,3.10
2023-05-06T23:34:27.404Z,3.20
2023-05-06T23:37:03.345Z,3.30
2023-05-06T23:39:36.530Z,3.25
2023-05-06T23:42:09.302Z,3.03
2023-05-06T23:44:48.301Z,3.08
2023-05-06T23:47:27.068Z,3.25
2023-05-06T23:50:05.742Z,3.13
2023-05-06T23:52:43.932Z,3.13
2023-05-06T23:55:19.758Z,2.95
2023-05-06T23:57:56.331Z,3.15
